Kennedale's Hourly Summary for Tuesday, July 10, 2018
Hour Temp
(f)
RH
(%)
Solar Rad.
(MJ/m2)
Rainfall
(in)
Wind
(mph)
7/10/2018 12:00 AM 76 88 0 0 3.65
7/10/2018 1:00 AM 75 89 0 0 4.08
7/10/2018 2:00 AM 74 88 0 0 3.86
7/10/2018 3:00 AM 74 87 0 0 2.74
7/10/2018 4:00 AM 74 89 0 0 2.23
7/10/2018 5:00 AM 74 87 0 0 2.85
7/10/2018 6:00 AM 74 87 0.01 0 1.68
7/10/2018 7:00 AM 75 87 0.12 0 1.63
7/10/2018 8:00 AM 76 85 0.32 0 3.08
7/10/2018 9:00 AM 79 77 0.87 0 3.02
7/10/2018 10:00 AM 83 67 1.34 0 5.31
7/10/2018 11:00 AM 84 63 1.32 0 5.48
7/10/2018 12:00 PM 88 53 2.23 0 4.19
7/10/2018 1:00 PM 91 46 2.59 0 3.25
7/10/2018 2:00 PM 87 54 2.12 0 9.62
7/10/2018 3:00 PM 85 59 1.12 0 5.87
7/10/2018 4:00 PM 80 75 0.31 0 4.87
7/10/2018 5:00 PM 81 72 0.57 0 3.02
7/10/2018 6:00 PM 84 66 0.54 0 3.52
7/10/2018 7:00 PM 84 64 0.32 0 3.8
7/10/2018 8:00 PM 83 63 0.06 0 5.31
7/10/2018 9:00 PM 81 69 0 0 2.8
7/10/2018 10:00 PM 80 75 0 0 3.52
7/10/2018 11:00 PM 78 77 0 0 1.73
Data Summary 80 73 13.84 0.00 3.80